Toronto, Canada
Current Conditions -  °F | °C
As of 10:00 PM on Sunday 23 Nov 2014 (Local Time) from CYYZ Reporting Station
Overcast Overcast  
Wind Chill: 43°   Ceiling: 15000
Heat Index: 46°   Visibility: 10mi
Dew Point: 39°   Wind: 7mph
Humidity: 76%   Direction: 80°E
Pressure: 29.66"   Gusts: NA
Location:  43.65°N, 79.39°W
Report Text: CYYZ 240300Z 08006KT 10SM FEW040 BKN150 OVC160 08/04 A2966 RMK SC2AC4AC2 PRESFR SLP046
Loading
Personal Weather Stations






























Interactive Weather Map New forecast layout! Learn more

10-Day Weather Forecast

Advertisements
Track Severe Weather on mobile